Time;durP1;ratioP1;P1;durP2;ratioP2;P2;SDS_P1;SDS_P2;PMS_P1;PMS_P2;Temp;Humidity;BMP_temperature;BMP_pressure;BME280_temperature;BME280_humidity;BME280_pressure;Samples;Min_cycle;Max_cycle;Signal;HPM_P1;HPM_P2
2023/04/09 00:02:10;;;;;;;1.55;1.40;;;;;;;;;;5060162;28;20405;-42
2023/04/09 00:04:35;;;;;;;1.58;1.35;;;;;;;;;;5062876;28;20052;-42
2023/04/09 00:07:01;;;;;;;1.50;1.40;;;;;;;;;;5061589;28;20041;-42
2023/04/09 00:09:26;;;;;;;1.48;1.38;;;;;;;;;;5060074;28;20059;-42
2023/04/09 00:11:52;;;;;;;9.70;1.90;;;;;;;;;;5058084;28;20048;-42
2023/04/09 00:14:17;;;;;;;2.50;1.30;;;;;;;;;;5063548;28;20056;-41
2023/04/09 00:16:42;;;;;;;2.25;1.52;;;;;;;;;;5051319;28;20489;-42
2023/04/09 00:19:08;;;;;;;1.50;1.40;;;;;;;;;;5047928;28;20051;-45
2023/04/09 00:21:33;;;;;;;1.23;1.17;;;;;;;;;;5048828;28;20044;-41
2023/04/09 00:23:59;;;;;;;1.30;1.27;;;;;;;;;;5051918;28;20086;-41
2023/04/09 00:26:24;;;;;;;3.10;1.50;;;;;;;;;;5050451;28;20052;-42
2023/04/09 00:28:50;;;;;;;1.70;1.60;;;;;;;;;;5054044;28;20807;-41
2023/04/09 00:31:15;;;;;;;1.50;1.40;;;;;;;;;;5053516;28;20447;-41
2023/04/09 00:33:41;;;;;;;1.58;1.48;;;;;;;;;;5052330;28;20032;-45
2023/04/09 00:36:06;;;;;;;3.28;1.50;;;;;;;;;;5050328;28;20037;-46
2023/04/09 00:38:31;;;;;;;1.20;1.10;;;;;;;;;;5059017;28;20036;-42
2023/04/09 00:40:57;;;;;;;1.52;1.40;;;;;;;;;;5052995;28;20033;-42
2023/04/09 00:43:22;;;;;;;1.38;1.27;;;;;;;;;;5046231;28;20025;-42
2023/04/09 00:45:48;;;;;;;1.42;1.33;;;;;;;;;;5048069;28;20106;-42
2023/04/09 00:48:15;;;;;;;1.40;1.30;;;;;;;;;;5058243;28;20033;-42
2023/04/09 00:50:41;;;;;;;1.48;1.33;;;;;;;;;;5052286;28;20429;-41
2023/04/09 00:53:09;;;;;;;1.55;1.30;;;;;;;;;;5039801;28;20040;-42
2023/04/09 00:55:35;;;;;;;5.15;1.30;;;;;;;;;;5040842;28;20048;-41
2023/04/09 00:58:00;;;;;;;2.97;1.58;;;;;;;;;;5045674;28;20081;-43
2023/04/09 01:00:26;;;;;;;1.60;1.50;;;;;;;;;;5047232;28;20052;-42
2023/04/09 01:02:52;;;;;;;1.23;1.13;;;;;;;;;;5047014;28;20127;-42
2023/04/09 01:05:18;;;;;;;1.30;1.20;;;;;;;;;;5044789;28;20057;-41
2023/04/09 01:08:20;;;;;;;1.65;1.23;;;;;;;;;;5045771;28;20464;-41
2023/04/09 01:10:56;;;;;;;1.70;1.20;;;;;;;;;;5049672;28;20060;-42
2023/04/09 01:13:54;;;;;;;4.65;1.80;;;;;;;;;;5059280;28;20063;-43
2023/04/09 01:16:22;;;;;;;1.50;1.40;;;;;;;;;;5060532;28;20099;-41
2023/04/09 01:18:55;;;;;;;1.50;1.40;;;;;;;;;;5059205;28;20024;-44
2023/04/09 01:21:26;;;;;;;3.17;1.48;;;;;;;;;;5059090;28;20154;-41
2023/04/09 01:24:18;;;;;;;1.40;1.30;;;;;;;;;;5057565;28;20037;-41
2023/04/09 01:26:53;;;;;;;1.48;1.38;;;;;;;;;;5058987;28;20036;-41
2023/04/09 01:29:20;;;;;;;1.75;1.30;;;;;;;;;;5059846;28;20036;-45
2023/04/09 01:31:47;;;;;;;1.52;1.40;;;;;;;;;;5058767;28;20067;-41
2023/04/09 01:34:13;;;;;;;2.63;1.88;;;;;;;;;;5062019;28;20025;-41
2023/04/09 01:36:40;;;;;;;3.50;1.70;;;;;;;;;;5063020;28;20040;-42
2023/04/09 01:39:06;;;;;;;1.75;1.65;;;;;;;;;;5061726;28;20032;-42
2023/04/09 01:41:34;;;;;;;2.95;1.65;;;;;;;;;;5064323;28;20041;-42
2023/04/09 01:44:01;;;;;;;2.70;1.80;;;;;;;;;;5054252;28;20028;-42
2023/04/09 01:46:27;;;;;;;2.90;1.70;;;;;;;;;;5056278;28;20393;-41
2023/04/09 01:48:54;;;;;;;2.05;1.70;;;;;;;;;;5056042;28;20052;-42
2023/04/09 01:51:19;;;;;;;1.95;1.75;;;;;;;;;;5056354;28;20068;-42
2023/04/09 01:53:45;;;;;;;2.60;1.80;;;;;;;;;;5063217;28;20031;-42
2023/04/09 01:56:10;;;;;;;2.63;1.92;;;;;;;;;;5051724;28;20041;-45
2023/04/09 01:58:36;;;;;;;4.38;1.90;;;;;;;;;;5038130;28;20033;-41
2023/04/09 02:01:46;;;;;;;2.65;2.03;;;;;;;;;;5041939;28;20037;-45
2023/04/09 02:04:21;;;;;;;1.73;1.55;;;;;;;;;;5021313;28;20053;-41
2023/04/09 02:07:03;;;;;;;1.23;1.15;;;;;;;;;;5024874;28;20128;-41
2023/04/09 02:09:30;;;;;;;2.22;1.48;;;;;;;;;;5023451;28;20033;-41
2023/04/09 02:11:58;;;;;;;2.38;1.88;;;;;;;;;;5023315;28;20072;-41
2023/04/09 02:14:25;;;;;;;3.30;1.55;;;;;;;;;;5025504;28;20116;-41
2023/04/09 02:16:51;;;;;;;1.70;1.60;;;;;;;;;;5024109;28;20037;-42
2023/04/09 02:19:16;;;;;;;1.88;1.42;;;;;;;;;;5022169;28;20710;-40
2023/04/09 02:21:43;;;;;;;1.58;1.48;;;;;;;;;;5022936;28;20033;-45
2023/04/09 02:24:08;;;;;;;1.70;1.60;;;;;;;;;;5024753;28;20472;-42
2023/04/09 02:26:34;;;;;;;3.15;1.60;;;;;;;;;;5024050;28;20046;-41
2023/04/09 02:28:59;;;;;;;2.72;2.20;;;;;;;;;;5022555;28;21103;-41
2023/04/09 02:31:24;;;;;;;2.95;1.85;;;;;;;;;;5022722;28;20103;-41
2023/04/09 02:33:50;;;;;;;1.83;1.73;;;;;;;;;;5024333;28;20068;-45
2023/04/09 02:36:16;;;;;;;2.55;1.80;;;;;;;;;;5023931;28;20076;-43
2023/04/09 02:38:41;;;;;;;2.00;1.90;;;;;;;;;;5022075;28;20065;-42
2023/04/09 02:41:07;;;;;;;1.92;1.60;;;;;;;;;;5039783;28;20037;-41
2023/04/09 02:43:32;;;;;;;4.53;2.10;;;;;;;;;;5040467;28;20508;-41
2023/04/09 02:45:58;;;;;;;5.45;2.00;;;;;;;;;;5036801;28;20045;-42
2023/04/09 02:48:23;;;;;;;3.15;1.90;;;;;;;;;;5039802;28;20044;-41
2023/04/09 02:50:48;;;;;;;12.95;2.30;;;;;;;;;;5039960;28;20038;-41
2023/04/09 02:53:14;;;;;;;5.45;2.40;;;;;;;;;;5042739;28;20025;-41
2023/04/09 02:55:39;;;;;;;4.65;2.05;;;;;;;;;;5041887;28;20132;-43
2023/04/09 02:58:05;;;;;;;3.25;1.90;;;;;;;;;;5043836;28;20482;-42
2023/04/09 03:00:30;;;;;;;1.83;1.67;;;;;;;;;;5043047;28;20120;-47
2023/04/09 03:02:56;;;;;;;2.40;1.90;;;;;;;;;;5046019;28;20070;-41
2023/04/09 03:05:22;;;;;;;1.85;1.52;;;;;;;;;;5043068;28;20044;-41
2023/04/09 03:07:48;;;;;;;2.90;1.80;;;;;;;;;;5043436;28;20029;-41
2023/04/09 03:10:14;;;;;;;1.90;1.70;;;;;;;;;;5041506;28;20062;-45
2023/04/09 03:12:39;;;;;;;4.35;1.73;;;;;;;;;;5046022;28;20042;-42
2023/04/09 03:15:05;;;;;;;2.17;1.80;;;;;;;;;;5044540;28;20091;-41
2023/04/09 03:17:31;;;;;;;3.17;2.00;;;;;;;;;;5042315;28;20481;-41
2023/04/09 03:19:56;;;;;;;1.80;1.70;;;;;;;;;;5046224;28;20082;-42
2023/04/09 03:22:22;;;;;;;2.08;1.90;;;;;;;;;;5044734;28;20128;-45
2023/04/09 03:24:47;;;;;;;5.50;1.73;;;;;;;;;;5048646;28;20047;-45
2023/04/09 03:27:12;;;;;;;1.60;1.50;;;;;;;;;;5045259;28;20131;-44
2023/04/09 03:29:38;;;;;;;2.17;1.98;;;;;;;;;;5038629;28;20036;-46
2023/04/09 03:32:03;;;;;;;3.22;2.08;;;;;;;;;;5046709;28;20124;-43
2023/04/09 03:34:29;;;;;;;2.25;1.75;;;;;;;;;;5047297;28;20044;-45
2023/04/09 03:36:54;;;;;;;2.28;1.77;;;;;;;;;;5048209;28;20171;-41
2023/04/09 03:39:19;;;;;;;2.05;1.83;;;;;;;;;;5046386;28;20541;-41
2023/04/09 03:41:45;;;;;;;2.88;1.55;;;;;;;;;;5047640;28;20477;-41
2023/04/09 03:44:10;;;;;;;2.47;1.90;;;;;;;;;;5046088;28;20029;-43
2023/04/09 03:46:36;;;;;;;2.08;1.88;;;;;;;;;;5046688;28;20453;-43
2023/04/09 03:49:01;;;;;;;1.75;1.65;;;;;;;;;;5045848;28;20156;-43
2023/04/09 03:51:27;;;;;;;1.70;1.55;;;;;;;;;;5058228;28;20576;-42
2023/04/09 03:53:52;;;;;;;1.70;1.60;;;;;;;;;;5066037;28;20032;-45
2023/04/09 03:56:17;;;;;;;1.50;1.40;;;;;;;;;;5062238;28;20044;-42
2023/04/09 03:58:43;;;;;;;1.48;1.42;;;;;;;;;;5062400;28;20033;-41
2023/04/09 04:01:08;;;;;;;1.70;1.60;;;;;;;;;;5056005;28;20064;-44
2023/04/09 04:03:33;;;;;;;1.80;1.70;;;;;;;;;;5061608;28;20099;-40
2023/04/09 04:06:01;;;;;;;2.63;2.03;;;;;;;;;;5066592;28;20056;-41
2023/04/09 04:08:26;;;;;;;1.88;1.77;;;;;;;;;;5062546;28;20021;-45
2023/04/09 04:10:52;;;;;;;2.38;1.90;;;;;;;;;;5063345;28;20052;-40
2023/04/09 04:13:17;;;;;;;1.73;1.58;;;;;;;;;;5061105;28;20063;-42
2023/04/09 04:15:42;;;;;;;2.47;2.00;;;;;;;;;;5059625;28;20456;-42
2023/04/09 04:18:09;;;;;;;2.53;1.90;;;;;;;;;;5063363;28;20044;-40
2023/04/09 04:20:36;;;;;;;3.28;1.80;;;;;;;;;;5059350;28;20048;-47
2023/04/09 04:23:01;;;;;;;2.30;1.83;;;;;;;;;;5060120;28;20048;-41
2023/04/09 04:25:27;;;;;;;2.25;1.85;;;;;;;;;;5063523;28;20117;-41
2023/04/09 04:27:53;;;;;;;3.10;2.03;;;;;;;;;;5062140;28;20046;-41
2023/04/09 04:30:20;;;;;;;2.45;2.10;;;;;;;;;;5059371;28;20028;-44
2023/04/09 04:32:46;;;;;;;2.63;1.92;;;;;;;;;;5059498;28;20028;-44
2023/04/09 04:35:11;;;;;;;1.83;1.70;;;;;;;;;;5063514;28;20477;-41
2023/04/09 04:37:37;;;;;;;1.80;1.70;;;;;;;;;;5061679;28;20017;-46
2023/04/09 04:40:04;;;;;;;1.75;1.65;;;;;;;;;;5059721;28;20370;-44
2023/04/09 04:42:29;;;;;;;2.20;2.00;;;;;;;;;;5055280;28;20021;-41
2023/04/09 04:44:55;;;;;;;1.88;1.77;;;;;;;;;;5054598;28;20024;-40
2023/04/09 04:47:20;;;;;;;2.55;2.00;;;;;;;;;;5062500;28;20056;-43
2023/04/09 04:49:45;;;;;;;4.88;2.20;;;;;;;;;;5057979;28;20651;-42
2023/04/09 04:52:11;;;;;;;1.85;1.75;;;;;;;;;;5058146;28;20045;-41
2023/04/09 04:54:36;;;;;;;2.33;2.13;;;;;;;;;;5057749;28;20025;-47
2023/04/09 04:57:02;;;;;;;3.38;2.15;;;;;;;;;;5060569;28;20497;-49
2023/04/09 04:59:27;;;;;;;2.33;2.13;;;;;;;;;;5060911;28;20040;-44
2023/04/09 05:01:53;;;;;;;2.40;2.20;;;;;;;;;;5046673;28;20045;-43
2023/04/09 05:04:18;;;;;;;5.00;2.80;;;;;;;;;;5042593;28;20075;-42
2023/04/09 05:06:43;;;;;;;3.28;2.63;;;;;;;;;;5040965;28;21364;-44
2023/04/09 05:09:09;;;;;;;4.00;2.78;;;;;;;;;;5045169;28;20028;-44
2023/04/09 05:11:34;;;;;;;4.05;2.67;;;;;;;;;;5051603;28;20059;-49
2023/04/09 05:14:00;;;;;;;2.85;2.55;;;;;;;;;;5059063;28;20073;-42
2023/04/09 05:16:25;;;;;;;3.08;2.78;;;;;;;;;;5050845;28;20037;-41
2023/04/09 05:18:51;;;;;;;2.42;2.22;;;;;;;;;;5040174;28;20035;-44
2023/04/09 05:21:16;;;;;;;4.68;2.72;;;;;;;;;;5044797;28;20067;-48
2023/04/09 05:23:42;;;;;;;3.75;2.70;;;;;;;;;;5045109;28;20090;-41
2023/04/09 05:26:07;;;;;;;3.42;2.75;;;;;;;;;;5044293;28;20512;-41
2023/04/09 05:28:32;;;;;;;3.00;2.70;;;;;;;;;;5045942;28;20051;-41
2023/04/09 05:30:58;;;;;;;8.80;2.88;;;;;;;;;;5043699;28;20470;-43
2023/04/09 05:33:23;;;;;;;4.50;2.50;;;;;;;;;;5045281;28;20091;-42
2023/04/09 05:35:49;;;;;;;7.70;2.40;;;;;;;;;;5040627;28;20140;-40
2023/04/09 05:38:14;;;;;;;2.63;2.42;;;;;;;;;;5045818;28;20033;-47
2023/04/09 05:40:41;;;;;;;2.60;2.40;;;;;;;;;;5045540;28;20501;-42
2023/04/09 05:43:06;;;;;;;4.70;2.75;;;;;;;;;;5059816;28;20025;-43
2023/04/09 05:45:31;;;;;;;3.47;2.40;;;;;;;;;;5051336;28;20524;-45
2023/04/09 05:47:57;;;;;;;3.85;2.80;;;;;;;;;;5042237;28;20041;-49
2023/04/09 05:50:22;;;;;;;2.53;2.33;;;;;;;;;;5037712;28;20128;-44
2023/04/09 05:52:48;;;;;;;6.22;2.50;;;;;;;;;;5046858;28;20067;-43
2023/04/09 05:55:13;;;;;;;2.33;2.13;;;;;;;;;;5045889;28;20083;-43
2023/04/09 05:57:39;;;;;;;4.53;2.20;;;;;;;;;;5042395;28;20032;-45
2023/04/09 06:00:05;;;;;;;2.40;2.20;;;;;;;;;;5043634;28;20036;-46
2023/04/09 06:02:30;;;;;;;2.80;2.47;;;;;;;;;;5044488;28;20040;-42
2023/04/09 06:04:56;;;;;;;4.55;2.20;;;;;;;;;;5041440;28;20017;-44
2023/04/09 06:07:21;;;;;;;3.17;2.05;;;;;;;;;;5058636;28;20044;-47
2023/04/09 06:09:46;;;;;;;3.85;2.05;;;;;;;;;;5060714;28;20029;-47
2023/04/09 06:12:12;;;;;;;3.33;2.00;;;;;;;;;;5058389;28;20076;-45
2023/04/09 06:14:38;;;;;;;2.30;1.75;;;;;;;;;;5055082;28;20136;-47
2023/04/09 06:17:03;;;;;;;2.08;1.80;;;;;;;;;;5056575;28;20037;-47
2023/04/09 06:19:29;;;;;;;4.07;2.03;;;;;;;;;;5058780;28;20428;-42
2023/04/09 06:21:54;;;;;;;2.00;1.90;;;;;;;;;;5059451;28;20091;-43
2023/04/09 06:24:20;;;;;;;3.63;1.90;;;;;;;;;;5056926;28;20033;-48
2023/04/09 06:26:45;;;;;;;1.60;1.50;;;;;;;;;;5041930;28;20056;-42
2023/04/09 06:29:10;;;;;;;2.00;1.90;;;;;;;;;;5038134;28;20032;-46
2023/04/09 06:31:36;;;;;;;1.88;1.77;;;;;;;;;;5048965;28;20065;-47
2023/04/09 06:34:01;;;;;;;2.65;1.60;;;;;;;;;;5058426;28;20532;-46
2023/04/09 06:36:26;;;;;;;4.50;1.95;;;;;;;;;;5059474;28;20032;-49
2023/04/09 06:38:52;;;;;;;5.07;1.60;;;;;;;;;;5060034;28;20142;-46
2023/04/09 06:41:22;;;;;;;3.60;1.77;;;;;;;;;;5058403;28;20755;-48
2023/04/09 06:43:48;;;;;;;2.53;1.42;;;;;;;;;;5059977;28;20029;-45
2023/04/09 06:46:16;;;;;;;2.55;1.70;;;;;;;;;;5049970;28;20695;-46
2023/04/09 06:48:43;;;;;;;1.83;1.73;;;;;;;;;;5036227;28;20041;-48
2023/04/09 06:51:10;;;;;;;1.90;1.70;;;;;;;;;;5039085;28;20041;-43
2023/04/09 06:53:36;;;;;;;17.48;1.73;;;;;;;;;;5043841;28;20489;-41
2023/04/09 06:56:01;;;;;;;2.00;1.80;;;;;;;;;;5041180;28;20041;-41
2023/04/09 06:58:27;;;;;;;1.67;1.58;;;;;;;;;;5044739;28;20397;-42
2023/04/09 07:00:52;;;;;;;2.10;1.58;;;;;;;;;;5044680;28;21031;-41
2023/04/09 07:03:18;;;;;;;1.25;1.23;;;;;;;;;;5062829;28;20025;-41
2023/04/09 07:05:43;;;;;;;2.92;1.52;;;;;;;;;;5057379;28;20039;-42
2023/04/09 07:08:08;;;;;;;1.60;1.50;;;;;;;;;;5059281;28;20028;-42
2023/04/09 07:10:34;;;;;;;1.40;1.30;;;;;;;;;;5053913;28;20063;-41
2023/04/09 07:13:00;;;;;;;2.03;1.60;;;;;;;;;;5059886;28;20043;-41
2023/04/09 07:15:25;;;;;;;2.63;1.80;;;;;;;;;;5054541;28;20045;-41
2023/04/09 07:17:51;;;;;;;1.85;1.50;;;;;;;;;;5036885;28;20394;-41
2023/04/09 07:20:16;;;;;;;1.83;1.67;;;;;;;;;;5036081;28;20024;-41
2023/04/09 07:22:43;;;;;;;2.47;1.70;;;;;;;;;;5041694;28;20045;-42
2023/04/09 07:25:09;;;;;;;3.10;1.40;;;;;;;;;;5044328;28;20029;-41
2023/04/09 07:27:34;;;;;;;1.63;1.20;;;;;;;;;;5057509;28;20033;-43
2023/04/09 07:30:00;;;;;;;1.35;1.25;;;;;;;;;;5060275;28;20042;-43
2023/04/09 07:32:26;;;;;;;1.60;1.50;;;;;;;;;;5043844;28;20051;-41
2023/04/09 07:34:53;;;;;;;1.55;1.40;;;;;;;;;;5041029;28;20105;-41
2023/04/09 07:37:19;;;;;;;7.85;1.55;;;;;;;;;;5059291;28;20833;-43
2023/04/09 07:39:45;;;;;;;1.95;1.17;;;;;;;;;;5060218;28;20930;-41
2023/04/09 07:42:10;;;;;;;2.75;1.60;;;;;;;;;;5044197;28;20052;-42
2023/04/09 07:44:36;;;;;;;2.50;1.55;;;;;;;;;;5043626;28;20036;-43
2023/04/09 07:47:03;;;;;;;1.50;1.40;;;;;;;;;;5042829;28;20458;-41
2023/04/09 07:49:28;;;;;;;1.83;1.70;;;;;;;;;;5039689;28;20029;-41
2023/04/09 07:51:54;;;;;;;3.33;1.73;;;;;;;;;;5044950;28;20037;-41
2023/04/09 07:54:20;;;;;;;1.55;1.45;;;;;;;;;;5044247;28;20028;-44
2023/04/09 07:56:46;;;;;;;1.98;1.42;;;;;;;;;;5056423;28;20048;-42
2023/04/09 07:59:11;;;;;;;4.43;1.58;;;;;;;;;;5054256;28;20032;-41
2023/04/09 08:01:36;;;;;;;1.67;1.58;;;;;;;;;;5063303;28;20048;-41
2023/04/09 08:07:24;;;;;;;2.03;1.67;;;;;;;;;;4962434;28;20169;-39
2023/04/09 08:09:49;;;;;;;2.35;2.10;;;;;;;;;;4961610;28;20035;-39
2023/04/09 08:12:15;;;;;;;1.50;1.40;;;;;;;;;;4966829;28;20046;-39
2023/04/09 08:14:40;;;;;;;4.22;1.92;;;;;;;;;;4964447;28;20035;-40
2023/04/09 08:17:05;;;;;;;6.57;2.60;;;;;;;;;;4962100;28;20181;-40
2023/04/09 08:19:31;;;;;;;2.20;2.00;;;;;;;;;;4964650;28;20027;-40
2023/04/09 08:21:57;;;;;;;9.25;2.50;;;;;;;;;;4962414;28;20038;-39
2023/04/09 08:24:23;;;;;;;7.75;2.45;;;;;;;;;;4968439;28;20061;-39
2023/04/09 08:26:48;;;;;;;4.70;2.15;;;;;;;;;;4963183;28;20089;-39
2023/04/09 08:29:14;;;;;;;2.47;1.60;;;;;;;;;;4963712;28;20537;-40
2023/04/09 08:31:39;;;;;;;3.28;1.58;;;;;;;;;;4962670;28;20145;-40
2023/04/09 08:34:05;;;;;;;4.50;1.63;;;;;;;;;;4965742;28;20031;-40
2023/04/09 08:36:31;;;;;;;7.13;1.58;;;;;;;;;;4961587;28;20046;-39
2023/04/09 08:38:59;;;;;;;1.67;1.58;;;;;;;;;;4962550;28;20078;-40
2023/04/09 08:41:28;;;;;;;6.18;2.00;;;;;;;;;;4963479;28;20504;-39
2023/04/09 08:43:54;;;;;;;2.50;2.30;;;;;;;;;;4963351;28;20046;-40
2023/04/09 08:46:19;;;;;;;3.78;2.25;;;;;;;;;;4960342;28;20338;-40
2023/04/09 08:48:46;;;;;;;4.13;2.00;;;;;;;;;;4961702;28;20039;-40
2023/04/09 08:51:16;;;;;;;3.65;2.03;;;;;;;;;;4962232;28;20157;-40
2023/04/09 08:53:46;;;;;;;2.95;2.20;;;;;;;;;;4961981;28;20480;-39
2023/04/09 08:56:14;;;;;;;2.40;2.05;;;;;;;;;;4960963;28;20582;-40
2023/04/09 08:58:45;;;;;;;2.47;2.00;;;;;;;;;;4965772;28;20042;-39
2023/04/09 09:01:25;;;;;;;6.85;2.47;;;;;;;;;;4963287;28;20047;-39
2023/04/09 09:03:58;;;;;;;2.35;1.92;;;;;;;;;;4963324;28;20035;-40
2023/04/09 09:06:30;;;;;;;2.00;1.85;;;;;;;;;;4962165;28;20432;-40
2023/04/09 09:09:05;;;;;;;3.42;2.10;;;;;;;;;;4962932;28;20124;-40
2023/04/09 09:11:35;;;;;;;2.67;2.03;;;;;;;;;;4964209;28;20098;-40
2023/04/09 09:14:05;;;;;;;2.38;2.10;;;;;;;;;;4960556;28;20030;-41
2023/04/09 09:16:33;;;;;;;3.58;2.00;;;;;;;;;;4958099;28;20069;-40
2023/04/09 09:19:00;;;;;;;2.05;1.75;;;;;;;;;;4962055;28;20463;-39
2023/04/09 09:21:27;;;;;;;6.32;2.63;;;;;;;;;;4962470;28;20094;-39
2023/04/09 09:23:53;;;;;;;4.15;2.10;;;;;;;;;;4966510;28;20027;-39
2023/04/09 09:26:29;;;;;;;3.42;2.22;;;;;;;;;;4961743;28;20058;-39
2023/04/09 09:28:58;;;;;;;2.45;1.80;;;;;;;;;;4962148;28;20042;-39
2023/04/09 09:31:24;;;;;;;3.38;2.33;;;;;;;;;;4963698;28;20034;-40
2023/04/09 09:33:50;;;;;;;2.63;2.17;;;;;;;;;;4962250;28;20089;-40
2023/04/09 09:36:33;;;;;;;5.50;2.30;;;;;;;;;;4967318;28;20058;-39
2023/04/09 09:39:02;;;;;;;3.22;2.17;;;;;;;;;;4965664;28;20050;-40
2023/04/09 09:41:28;;;;;;;2.20;1.95;;;;;;;;;;4962878;28;20129;-41
2023/04/09 09:43:53;;;;;;;10.68;2.03;;;;;;;;;;4958792;28;20065;-40
2023/04/09 09:46:21;;;;;;;17.52;3.30;;;;;;;;;;4963290;28;20573;-40
2023/04/09 09:48:46;;;;;;;3.10;2.40;;;;;;;;;;4963474;28;22256;-40
2023/04/09 09:51:12;;;;;;;6.85;2.33;;;;;;;;;;4966087;28;20129;-41
2023/04/09 09:53:40;;;;;;;2.63;1.90;;;;;;;;;;4965681;28;20042;-40
2023/04/09 09:56:13;;;;;;;4.95;1.67;;;;;;;;;;4965610;28;20046;-40
2023/04/09 09:59:02;;;;;;;2.80;1.95;;;;;;;;;;4960378;28;20073;-40
2023/04/09 10:01:28;;;;;;;1.85;1.75;;;;;;;;;;4963160;28;20146;-40
2023/04/09 10:03:56;;;;;;;5.93;2.00;;;;;;;;;;4967361;28;20102;-40
2023/04/09 10:06:22;;;;;;;2.15;1.80;;;;;;;;;;4963791;28;20734;-40
2023/04/09 10:08:49;;;;;;;2.20;2.03;;;;;;;;;;4965369;28;20110;-40
2023/04/09 10:11:15;;;;;;;2.00;1.80;;;;;;;;;;4963888;28;20035;-40
2023/04/09 10:13:49;;;;;;;2.75;2.13;;;;;;;;;;4966094;28;20053;-40
2023/04/09 10:16:15;;;;;;;1.73;1.52;;;;;;;;;;4963283;28;20038;-40
2023/04/09 10:18:41;;;;;;;6.25;4.40;;;;;;;;;;4965778;28;20031;-40
2023/04/09 10:21:12;;;;;;;1.92;1.77;;;;;;;;;;4964519;28;22130;-40
2023/04/09 10:23:40;;;;;;;5.72;2.00;;;;;;;;;;4963662;28;20866;-40
2023/04/09 10:26:06;;;;;;;2.33;2.10;;;;;;;;;;4961244;28;20427;-40
2023/04/09 10:28:32;;;;;;;2.20;2.00;;;;;;;;;;4967283;28;20026;-40
2023/04/09 10:30:58;;;;;;;2.38;2.00;;;;;;;;;;4966325;28;20523;-40
2023/04/09 10:33:26;;;;;;;3.78;1.88;;;;;;;;;;4963880;28;20039;-40
2023/04/09 10:35:53;;;;;;;3.67;2.42;;;;;;;;;;4966718;28;20047;-40
2023/04/09 10:38:34;;;;;;;5.35;1.98;;;;;;;;;;4967135;28;21372;-40
2023/04/09 10:41:07;;;;;;;4.37;2.27;;;;;;;;;;4966189;28;20042;-40
2023/04/09 10:43:35;;;;;;;2.38;1.70;;;;;;;;;;4968094;28;20615;-40
2023/04/09 10:46:02;;;;;;;5.88;2.10;;;;;;;;;;4963681;28;20046;-40
2023/04/09 10:48:31;;;;;;;3.60;1.70;;;;;;;;;;4966449;28;20049;-40
2023/04/09 10:50:57;;;;;;;5.18;2.90;;;;;;;;;;4964087;28;20046;-40
2023/04/09 10:53:24;;;;;;;4.30;1.88;;;;;;;;;;4967266;28;20350;-40
2023/04/09 10:55:51;;;;;;;5.53;2.53;;;;;;;;;;4967692;28;20054;-41
2023/04/09 10:58:17;;;;;;;2.03;1.65;;;;;;;;;;4966091;28;20042;-40
2023/04/09 11:00:45;;;;;;;1.92;1.70;;;;;;;;;;4970499;28;20066;-42
2023/04/09 11:03:26;;;;;;;1.75;1.65;;;;;;;;;;4968991;28;20042;-40
2023/04/09 11:06:07;;;;;;;2.58;1.60;;;;;;;;;;4966696;28;20078;-40
2023/04/09 11:08:34;;;;;;;2.38;1.65;;;;;;;;;;4966084;28;20027;-40
2023/04/09 11:11:01;;;;;;;2.17;1.95;;;;;;;;;;4966699;28;20200;-40
2023/04/09 11:13:28;;;;;;;4.10;1.60;;;;;;;;;;4967446;28;20027;-40
2023/04/09 11:15:54;;;;;;;6.63;2.28;;;;;;;;;;4965985;28;20049;-40
2023/04/09 11:18:21;;;;;;;1.88;1.73;;;;;;;;;;4963994;28;20031;-40
2023/04/09 11:20:47;;;;;;;3.75;2.03;;;;;;;;;;4967201;28;20238;-40
2023/04/09 11:23:13;;;;;;;4.60;2.40;;;;;;;;;;4967117;28;20216;-40
2023/04/09 11:25:38;;;;;;;4.82;3.60;;;;;;;;;;4964214;28;20181;-40
2023/04/09 11:28:06;;;;;;;2.53;1.90;;;;;;;;;;4964529;28;20654;-40
2023/04/09 11:30:33;;;;;;;1.95;1.75;;;;;;;;;;4966215;28;20419;-40
2023/04/09 11:32:59;;;;;;;4.85;2.28;;;;;;;;;;4968188;28;20023;-40
2023/04/09 11:35:25;;;;;;;4.35;1.67;;;;;;;;;;4964498;28;20054;-40
2023/04/09 11:37:51;;;;;;;2.78;1.70;;;;;;;;;;4965645;28;20036;-40
2023/04/09 11:40:18;;;;;;;3.72;1.92;;;;;;;;;;4964580;28;20063;-41
2023/04/09 11:42:45;;;;;;;1.50;1.40;;;;;;;;;;4968372;28;20023;-40
2023/04/09 11:45:11;;;;;;;1.63;1.42;;;;;;;;;;4965836;28;20034;-40
2023/04/09 11:47:39;;;;;;;4.30;1.40;;;;;;;;;;4965208;28;20078;-40
2023/04/09 11:50:07;;;;;;;1.42;1.33;;;;;;;;;;4962499;28;20061;-40
2023/04/09 11:52:34;;;;;;;1.38;1.27;;;;;;;;;;4967575;28;20038;-40
2023/04/09 11:55:03;;;;;;;2.83;1.55;;;;;;;;;;4966367;28;20042;-40
2023/04/09 11:57:40;;;;;;;2.67;1.65;;;;;;;;;;4966504;28;20126;-40
2023/04/09 12:00:16;;;;;;;5.82;1.20;;;;;;;;;;4967776;28;20513;-40
2023/04/09 12:02:45;;;;;;;3.92;1.35;;;;;;;;;;4967421;28;20034;-40
2023/04/09 12:05:12;;;;;;;1.40;1.15;;;;;;;;;;4963621;28;20082;-40
2023/04/09 12:07:39;;;;;;;1.60;1.50;;;;;;;;;;4967404;28;20770;-40
2023/04/09 12:10:09;;;;;;;3.90;1.98;;;;;;;;;;4966298;28;20070;-40
2023/04/09 12:12:45;;;;;;;5.53;4.60;;;;;;;;;;4964183;28;20041;-41
2023/04/09 12:15:11;;;;;;;1.50;1.38;;;;;;;;;;4967148;28;20070;-40
2023/04/09 12:17:36;;;;;;;4.47;1.83;;;;;;;;;;4961387;28;20105;-40
2023/04/09 12:20:02;;;;;;;1.85;1.73;;;;;;;;;;4965264;28;20039;-40
2023/04/09 12:22:27;;;;;;;7.47;1.45;;;;;;;;;;4965838;28;20387;-41
2023/04/09 12:24:54;;;;;;;2.05;1.55;;;;;;;;;;4964573;28;20030;-40
2023/04/09 12:27:19;;;;;;;1.40;1.30;;;;;;;;;;4965383;28;20047;-43
2023/04/09 12:29:45;;;;;;;3.30;1.50;;;;;;;;;;4964336;28;20042;-41
2023/04/09 12:32:10;;;;;;;2.33;1.73;;;;;;;;;;4963852;28;20057;-40
2023/04/09 12:34:36;;;;;;;3.67;1.85;;;;;;;;;;4965234;28;20464;-41
2023/04/09 12:37:01;;;;;;;3.50;2.92;;;;;;;;;;4964074;28;20042;-41
2023/04/09 12:39:26;;;;;;;1.67;1.58;;;;;;;;;;4964174;28;20382;-40
2023/04/09 12:41:53;;;;;;;2.80;1.58;;;;;;;;;;4964618;28;20123;-40
2023/04/09 12:44:18;;;;;;;2.85;1.67;;;;;;;;;;4964885;28;20075;-40
2023/04/09 12:46:43;;;;;;;4.57;1.67;;;;;;;;;;4964770;28;20047;-40
2023/04/09 12:49:09;;;;;;;2.03;1.75;;;;;;;;;;4963662;28;20042;-41
2023/04/09 12:51:34;;;;;;;1.88;1.50;;;;;;;;;;4949734;28;20051;-40
2023/04/09 12:54:02;;;;;;;1.75;1.58;;;;;;;;;;4948324;28;20089;-40
2023/04/09 12:56:28;;;;;;;1.75;1.65;;;;;;;;;;4948293;28;20098;-41
2023/04/09 12:58:53;;;;;;;1.92;1.52;;;;;;;;;;4950693;28;20042;-40
2023/04/09 13:01:18;;;;;;;1.80;1.70;;;;;;;;;;4956733;28;20034;-40
2023/04/09 13:03:44;;;;;;;4.28;1.70;;;;;;;;;;4963679;28;20399;-40
2023/04/09 13:06:09;;;;;;;5.22;1.88;;;;;;;;;;4953285;28;20063;-40
2023/04/09 13:08:35;;;;;;;2.10;1.40;;;;;;;;;;4948052;28;20038;-41
2023/04/09 13:11:00;;;;;;;1.75;1.65;;;;;;;;;;4950696;28;20046;-40
2023/04/09 13:13:27;;;;;;;1.40;1.30;;;;;;;;;;4963638;28;20054;-40
2023/04/09 13:15:52;;;;;;;2.95;1.85;;;;;;;;;;4957784;28;20070;-40
2023/04/09 13:18:18;;;;;;;1.58;1.48;;;;;;;;;;4945576;28;20058;-40
2023/04/09 13:20:43;;;;;;;1.67;1.50;;;;;;;;;;4953410;28;20419;-40
2023/04/09 13:23:09;;;;;;;2.03;1.67;;;;;;;;;;4963966;28;20031;-40
2023/04/09 13:25:34;;;;;;;2.60;1.50;;;;;;;;;;4967592;28;20039;-40
2023/04/09 13:27:59;;;;;;;3.38;1.80;;;;;;;;;;4964547;28;20438;-40
2023/04/09 13:30:25;;;;;;;4.15;1.52;;;;;;;;;;4963625;28;20077;-40
2023/04/09 13:32:50;;;;;;;1.60;1.50;;;;;;;;;;4965562;28;20069;-40
2023/04/09 13:35:17;;;;;;;6.00;1.77;;;;;;;;;;4965872;28;20034;-40
2023/04/09 13:37:43;;;;;;;1.90;1.70;;;;;;;;;;4965992;28;20759;-40
2023/04/09 13:40:09;;;;;;;2.67;1.90;;;;;;;;;;4964442;28;20647;-40
2023/04/09 13:42:36;;;;;;;1.77;1.50;;;;;;;;;;4966525;28;20603;-40
2023/04/09 13:45:02;;;;;;;6.85;1.75;;;;;;;;;;4958558;28;20038;-40
2023/04/09 13:47:27;;;;;;;1.60;1.50;;;;;;;;;;4963807;28;20046;-40
2023/04/09 13:49:53;;;;;;;2.30;1.48;;;;;;;;;;4962660;28;20034;-45
2023/04/09 13:52:18;;;;;;;3.47;1.73;;;;;;;;;;4963666;28;20039;-40
2023/04/09 13:54:43;;;;;;;2.38;1.60;;;;;;;;;;4963346;28;20530;-40
2023/04/09 13:57:09;;;;;;;3.10;1.85;;;;;;;;;;4963933;28;20126;-40
2023/04/09 13:59:35;;;;;;;5.90;1.90;;;;;;;;;;4962817;28;20373;-40
2023/04/09 14:02:00;;;;;;;2.78;1.90;;;;;;;;;;4962715;28;20047;-40
2023/04/09 14:04:25;;;;;;;3.60;1.48;;;;;;;;;;4963003;28;20475;-40
2023/04/09 14:06:51;;;;;;;4.95;1.95;;;;;;;;;;4963843;28;20097;-40
2023/04/09 14:09:16;;;;;;;1.50;1.40;;;;;;;;;;4963596;28;20109;-40
2023/04/09 14:11:42;;;;;;;3.25;1.70;;;;;;;;;;4962738;28;20095;-40
2023/04/09 14:14:07;;;;;;;2.47;1.65;;;;;;;;;;4961976;28;20027;-40
2023/04/09 14:16:32;;;;;;;4.32;1.77;;;;;;;;;;4961748;28;20507;-40
2023/04/09 14:18:58;;;;;;;2.45;1.83;;;;;;;;;;4962757;28;20065;-40
2023/04/09 14:21:23;;;;;;;1.50;1.40;;;;;;;;;;4963618;28;20129;-40
2023/04/09 14:23:49;;;;;;;2.33;1.55;;;;;;;;;;4964007;28;20027;-40
2023/04/09 14:26:15;;;;;;;1.92;1.65;;;;;;;;;;4963060;28;20145;-40
2023/04/09 14:28:42;;;;;;;3.40;1.67;;;;;;;;;;4963281;28;20173;-40
2023/04/09 14:31:07;;;;;;;4.47;2.20;;;;;;;;;;4960836;28;20050;-40
2023/04/09 14:33:32;;;;;;;4.25;2.03;;;;;;;;;;4962525;28;20027;-40
2023/04/09 14:35:58;;;;;;;3.65;1.85;;;;;;;;;;4961285;28;20062;-40
2023/04/09 14:38:23;;;;;;;2.85;2.45;;;;;;;;;;4966323;28;20113;-42
2023/04/09 14:40:49;;;;;;;4.07;1.80;;;;;;;;;;4961986;28;20070;-40
2023/04/09 14:43:15;;;;;;;2.60;1.90;;;;;;;;;;4967790;28;20034;-40
2023/04/09 14:45:40;;;;;;;2.83;1.90;;;;;;;;;;4961110;28;20475;-40